sensor_id;sensor_type;location;lat;lon;timestamp;temperature;humidity
31837;DHT22;18401;49.344;6.240;2023-05-07T00:01:44;10.90;99.90
31837;DHT22;18401;49.344;6.240;2023-05-07T00:04:10;11.00;99.90
31837;DHT22;18401;49.344;6.240;2023-05-07T00:06:36;11.00;99.90
31837;DHT22;18401;49.344;6.240;2023-05-07T00:09:02;11.10;99.90
31837;DHT22;18401;49.344;6.240;2023-05-07T00:11:28;11.10;99.90
31837;DHT22;18401;49.344;6.240;2023-05-07T00:13:53;11.00;99.90
31837;DHT22;18401;49.344;6.240;2023-05-07T00:16:19;11.10;99.90
31837;DHT22;18401;49.344;6.240;2023-05-07T00:18:45;11.00;99.90
31837;DHT22;18401;49.344;6.240;2023-05-07T00:21:10;10.80;99.90
31837;DHT22;18401;49.344;6.240;2023-05-07T00:23:36;10.60;99.90
31837;DHT22;18401;49.344;6.240;2023-05-07T00:26:02;10.40;99.90
31837;DHT22;18401;49.344;6.240;2023-05-07T00:28:27;10.30;99.90
31837;DHT22;18401;49.344;6.240;2023-05-07T00:30:53;10.30;99.90
31837;DHT22;18401;49.344;6.240;2023-05-07T00:33:18;10.30;99.90
31837;DHT22;18401;49.344;6.240;2023-05-07T00:35:45;10.30;99.90
31837;DHT22;18401;49.344;6.240;2023-05-07T00:38:11;10.20;99.90
31837;DHT22;18401;49.344;6.240;2023-05-07T00:40:37;10.00;99.90
31837;DHT22;18401;49.344;6.240;2023-05-07T00:43:02;9.90;99.90
31837;DHT22;18401;49.344;6.240;2023-05-07T00:45:28;9.80;99.90
31837;DHT22;18401;49.344;6.240;2023-05-07T00:47:54;9.80;99.90
31837;DHT22;18401;49.344;6.240;2023-05-07T00:50:20;9.90;99.90
31837;DHT22;18401;49.344;6.240;2023-05-07T00:52:45;9.90;99.90
31837;DHT22;18401;49.344;6.240;2023-05-07T00:55:11;9.90;99.90
31837;DHT22;18401;49.344;6.240;2023-05-07T00:57:39;9.90;99.90
31837;DHT22;18401;49.344;6.240;2023-05-07T01:00:05;9.80;99.90
31837;DHT22;18401;49.344;6.240;2023-05-07T01:02:30;9.80;99.90
31837;DHT22;18401;49.344;6.240;2023-05-07T01:04:56;9.70;99.90
31837;DHT22;18401;49.344;6.240;2023-05-07T01:07:22;9.60;99.90
31837;DHT22;18401;49.344;6.240;2023-05-07T01:09:48;9.50;99.90
31837;DHT22;18401;49.344;6.240;2023-05-07T01:12:14;9.50;99.90
31837;DHT22;18401;49.344;6.240;2023-05-07T01:14:40;9.50;99.90
31837;DHT22;18401;49.344;6.240;2023-05-07T01:17:06;9.50;99.90
31837;DHT22;18401;49.344;6.240;2023-05-07T01:19:32;9.50;99.90
31837;DHT22;18401;49.344;6.240;2023-05-07T01:22:01;9.60;99.90
31837;DHT22;18401;49.344;6.240;2023-05-07T01:24:28;9.30;99.90
31837;DHT22;18401;49.344;6.240;2023-05-07T01:26:54;9.20;99.90
31837;DHT22;18401;49.344;6.240;2023-05-07T01:29:20;9.30;99.90
31837;DHT22;18401;49.344;6.240;2023-05-07T01:31:45;9.50;99.90
31837;DHT22;18401;49.344;6.240;2023-05-07T01:34:11;9.50;99.90
31837;DHT22;18401;49.344;6.240;2023-05-07T01:36:38;9.50;99.90
31837;DHT22;18401;49.344;6.240;2023-05-07T01:39:04;9.70;99.90
31837;DHT22;18401;49.344;6.240;2023-05-07T01:41:30;9.70;99.90
31837;DHT22;18401;49.344;6.240;2023-05-07T01:43:56;9.70;99.90
31837;DHT22;18401;49.344;6.240;2023-05-07T01:46:23;9.60;99.90
31837;DHT22;18401;49.344;6.240;2023-05-07T01:48:49;9.50;99.90
31837;DHT22;18401;49.344;6.240;2023-05-07T01:51:15;9.60;99.90
31837;DHT22;18401;49.344;6.240;2023-05-07T01:53:41;9.70;99.90
31837;DHT22;18401;49.344;6.240;2023-05-07T01:56:08;9.80;99.90
31837;DHT22;18401;49.344;6.240;2023-05-07T01:58:34;9.70;99.90
31837;DHT22;18401;49.344;6.240;2023-05-07T02:00:59;9.60;99.90
31837;DHT22;18401;49.344;6.240;2023-05-07T02:03:25;9.80;99.90
31837;DHT22;18401;49.344;6.240;2023-05-07T02:05:51;9.50;99.90
31837;DHT22;18401;49.344;6.240;2023-05-07T02:08:16;9.30;99.90
31837;DHT22;18401;49.344;6.240;2023-05-07T02:10:42;9.30;99.90
31837;DHT22;18401;49.344;6.240;2023-05-07T02:13:07;9.40;99.90
31837;DHT22;18401;49.344;6.240;2023-05-07T02:15:33;9.50;99.90
31837;DHT22;18401;49.344;6.240;2023-05-07T02:18:02;9.50;99.90
31837;DHT22;18401;49.344;6.240;2023-05-07T02:20:28;9.50;99.90
31837;DHT22;18401;49.344;6.240;2023-05-07T02:22:53;9.50;99.90
31837;DHT22;18401;49.344;6.240;2023-05-07T02:25:19;9.50;99.90
31837;DHT22;18401;49.344;6.240;2023-05-07T02:27:45;9.60;99.90
31837;DHT22;18401;49.344;6.240;2023-05-07T02:30:10;9.50;99.90
31837;DHT22;18401;49.344;6.240;2023-05-07T02:32:36;9.60;99.90
31837;DHT22;18401;49.344;6.240;2023-05-07T02:35:01;9.50;99.90
31837;DHT22;18401;49.344;6.240;2023-05-07T02:37:27;9.40;99.90
31837;DHT22;18401;49.344;6.240;2023-05-07T02:39:52;9.30;99.90
31837;DHT22;18401;49.344;6.240;2023-05-07T02:42:18;9.30;99.90
31837;DHT22;18401;49.344;6.240;2023-05-07T02:44:44;9.20;99.90
31837;DHT22;18401;49.344;6.240;2023-05-07T02:47:09;9.20;99.90
31837;DHT22;18401;49.344;6.240;2023-05-07T02:49:35;9.20;99.90
31837;DHT22;18401;49.344;6.240;2023-05-07T02:52:01;9.20;99.90
31837;DHT22;18401;49.344;6.240;2023-05-07T02:54:26;9.20;99.90
31837;DHT22;18401;49.344;6.240;2023-05-07T02:56:52;9.20;99.90
31837;DHT22;18401;49.344;6.240;2023-05-07T02:59:17;9.30;99.90
31837;DHT22;18401;49.344;6.240;2023-05-07T03:01:43;9.30;99.90
31837;DHT22;18401;49.344;6.240;2023-05-07T03:04:10;9.20;99.90
31837;DHT22;18401;49.344;6.240;2023-05-07T03:06:36;9.00;99.90
31837;DHT22;18401;49.344;6.240;2023-05-07T03:09:01;9.20;99.90
31837;DHT22;18401;49.344;6.240;2023-05-07T03:11:27;9.20;99.90
31837;DHT22;18401;49.344;6.240;2023-05-07T03:13:53;9.10;99.90
31837;DHT22;18401;49.344;6.240;2023-05-07T03:16:18;9.00;99.90
31837;DHT22;18401;49.344;6.240;2023-05-07T03:18:46;8.90;99.90
31837;DHT22;18401;49.344;6.240;2023-05-07T03:21:11;8.70;99.90
31837;DHT22;18401;49.344;6.240;2023-05-07T03:23:37;8.90;99.90
31837;DHT22;18401;49.344;6.240;2023-05-07T03:26:02;9.00;99.90
31837;DHT22;18401;49.344;6.240;2023-05-07T03:28:28;9.00;99.90
31837;DHT22;18401;49.344;6.240;2023-05-07T03:30:53;9.10;99.90
31837;DHT22;18401;49.344;6.240;2023-05-07T03:33:19;9.10;99.90
31837;DHT22;18401;49.344;6.240;2023-05-07T03:35:44;9.00;99.90
31837;DHT22;18401;49.344;6.240;2023-05-07T03:38:10;8.90;99.90
31837;DHT22;18401;49.344;6.240;2023-05-07T03:40:36;8.70;99.90
31837;DHT22;18401;49.344;6.240;2023-05-07T03:43:01;8.60;99.90
31837;DHT22;18401;49.344;6.240;2023-05-07T03:45:27;8.50;99.90
31837;DHT22;18401;49.344;6.240;2023-05-07T03:47:52;8.40;99.90
31837;DHT22;18401;49.344;6.240;2023-05-07T03:50:19;8.30;99.90
31837;DHT22;18401;49.344;6.240;2023-05-07T03:52:44;8.30;99.90
31837;DHT22;18401;49.344;6.240;2023-05-07T03:55:10;8.20;99.90
31837;DHT22;18401;49.344;6.240;2023-05-07T03:57:36;8.20;99.90
31837;DHT22;18401;49.344;6.240;2023-05-07T04:00:01;8.30;99.90
31837;DHT22;18401;49.344;6.240;2023-05-07T04:02:28;8.30;99.90
31837;DHT22;18401;49.344;6.240;2023-05-07T04:04:54;8.40;99.90
31837;DHT22;18401;49.344;6.240;2023-05-07T04:07:20;8.30;99.90
31837;DHT22;18401;49.344;6.240;2023-05-07T04:09:45;8.20;99.90
31837;DHT22;18401;49.344;6.240;2023-05-07T04:12:11;8.30;99.90
31837;DHT22;18401;49.344;6.240;2023-05-07T04:14:36;8.60;99.90
31837;DHT22;18401;49.344;6.240;2023-05-07T04:17:02;8.70;99.90
31837;DHT22;18401;49.344;6.240;2023-05-07T04:19:28;8.70;99.90
31837;DHT22;18401;49.344;6.240;2023-05-07T04:21:53;8.60;99.90
31837;DHT22;18401;49.344;6.240;2023-05-07T04:24:19;8.60;99.90
31837;DHT22;18401;49.344;6.240;2023-05-07T04:26:45;8.70;99.90
31837;DHT22;18401;49.344;6.240;2023-05-07T04:29:10;8.80;99.90
31837;DHT22;18401;49.344;6.240;2023-05-07T04:31:36;8.90;99.90
31837;DHT22;18401;49.344;6.240;2023-05-07T04:34:02;9.00;99.90
31837;DHT22;18401;49.344;6.240;2023-05-07T04:36:27;9.10;99.90
31837;DHT22;18401;49.344;6.240;2023-05-07T04:38:54;9.10;99.90
31837;DHT22;18401;49.344;6.240;2023-05-07T04:41:19;9.20;99.90
31837;DHT22;18401;49.344;6.240;2023-05-07T04:43:46;9.30;99.90
31837;DHT22;18401;49.344;6.240;2023-05-07T04:46:11;9.30;99.90
31837;DHT22;18401;49.344;6.240;2023-05-07T04:48:36;9.40;99.90
31837;DHT22;18401;49.344;6.240;2023-05-07T04:51:02;9.50;99.90
31837;DHT22;18401;49.344;6.240;2023-05-07T04:53:28;9.70;99.90
31837;DHT22;18401;49.344;6.240;2023-05-07T04:55:56;9.70;99.90
31837;DHT22;18401;49.344;6.240;2023-05-07T04:58:22;9.60;99.90
31837;DHT22;18401;49.344;6.240;2023-05-07T05:00:48;9.60;99.90
31837;DHT22;18401;49.344;6.240;2023-05-07T05:03:13;9.60;99.90
31837;DHT22;18401;49.344;6.240;2023-05-07T05:05:39;9.50;99.90
31837;DHT22;18401;49.344;6.240;2023-05-07T05:08:04;9.60;99.90
31837;DHT22;18401;49.344;6.240;2023-05-07T05:10:30;9.60;99.90
31837;DHT22;18401;49.344;6.240;2023-05-07T05:12:55;9.70;99.90
31837;DHT22;18401;49.344;6.240;2023-05-07T05:15:22;9.90;99.90
31837;DHT22;18401;49.344;6.240;2023-05-07T05:17:47;10.10;99.90
31837;DHT22;18401;49.344;6.240;2023-05-07T05:20:13;10.30;99.90
31837;DHT22;18401;49.344;6.240;2023-05-07T05:22:40;10.50;99.90
31837;DHT22;18401;49.344;6.240;2023-05-07T05:25:06;10.80;99.90
31837;DHT22;18401;49.344;6.240;2023-05-07T05:27:32;10.90;99.90
31837;DHT22;18401;49.344;6.240;2023-05-07T05:29:57;10.90;99.90
31837;DHT22;18401;49.344;6.240;2023-05-07T05:32:23;10.90;99.90
31837;DHT22;18401;49.344;6.240;2023-05-07T05:34:48;11.00;99.90
31837;DHT22;18401;49.344;6.240;2023-05-07T05:37:14;11.10;99.90
31837;DHT22;18401;49.344;6.240;2023-05-07T05:39:39;11.20;99.90
31837;DHT22;18401;49.344;6.240;2023-05-07T05:42:05;11.40;99.90
31837;DHT22;18401;49.344;6.240;2023-05-07T05:44:31;11.50;99.90
31837;DHT22;18401;49.344;6.240;2023-05-07T05:46:56;11.50;99.90
31837;DHT22;18401;49.344;6.240;2023-05-07T05:49:24;11.40;99.90
31837;DHT22;18401;49.344;6.240;2023-05-07T05:51:50;11.40;99.90
31837;DHT22;18401;49.344;6.240;2023-05-07T05:54:15;11.40;99.90
31837;DHT22;18401;49.344;6.240;2023-05-07T05:56:41;11.50;99.90
31837;DHT22;18401;49.344;6.240;2023-05-07T05:59:07;11.70;99.90
31837;DHT22;18401;49.344;6.240;2023-05-07T06:01:33;11.80;99.90
31837;DHT22;18401;49.344;6.240;2023-05-07T06:03:58;11.80;99.90
31837;DHT22;18401;49.344;6.240;2023-05-07T06:06:24;11.90;99.90
31837;DHT22;18401;49.344;6.240;2023-05-07T06:08:49;12.00;99.90
31837;DHT22;18401;49.344;6.240;2023-05-07T06:11:15;12.10;99.90
31837;DHT22;18401;49.344;6.240;2023-05-07T06:13:40;12.30;99.90
31837;DHT22;18401;49.344;6.240;2023-05-07T06:16:06;12.40;99.90
31837;DHT22;18401;49.344;6.240;2023-05-07T06:18:32;12.60;99.90
31837;DHT22;18401;49.344;6.240;2023-05-07T06:20:57;12.70;99.90
31837;DHT22;18401;49.344;6.240;2023-05-07T06:23:23;12.80;99.90
31837;DHT22;18401;49.344;6.240;2023-05-07T06:25:49;13.00;99.90
31837;DHT22;18401;49.344;6.240;2023-05-07T06:28:15;13.20;99.90
31837;DHT22;18401;49.344;6.240;2023-05-07T06:30:41;13.30;99.90
31837;DHT22;18401;49.344;6.240;2023-05-07T06:33:06;13.50;99.90
31837;DHT22;18401;49.344;6.240;2023-05-07T06:35:32;13.70;99.90
31837;DHT22;18401;49.344;6.240;2023-05-07T06:37:57;13.90;99.90
31837;DHT22;18401;49.344;6.240;2023-05-07T06:40:22;14.10;99.90
31837;DHT22;18401;49.344;6.240;2023-05-07T06:42:48;14.30;99.90
31837;DHT22;18401;49.344;6.240;2023-05-07T06:45:14;14.30;99.90
31837;DHT22;18401;49.344;6.240;2023-05-07T06:47:39;14.20;99.90
31837;DHT22;18401;49.344;6.240;2023-05-07T06:50:05;14.20;99.90
31837;DHT22;18401;49.344;6.240;2023-05-07T06:52:30;14.10;99.90
31837;DHT22;18401;49.344;6.240;2023-05-07T06:54:56;14.20;99.90
31837;DHT22;18401;49.344;6.240;2023-05-07T06:57:22;14.20;99.90
31837;DHT22;18401;49.344;6.240;2023-05-07T06:59:47;14.30;99.90
31837;DHT22;18401;49.344;6.240;2023-05-07T07:02:13;14.40;99.90
31837;DHT22;18401;49.344;6.240;2023-05-07T07:04:38;14.50;99.90
31837;DHT22;18401;49.344;6.240;2023-05-07T07:07:04;14.60;99.90
31837;DHT22;18401;49.344;6.240;2023-05-07T07:09:29;14.60;99.90
31837;DHT22;18401;49.344;6.240;2023-05-07T07:11:55;14.80;99.90
31837;DHT22;18401;49.344;6.240;2023-05-07T07:14:20;14.80;99.90
31837;DHT22;18401;49.344;6.240;2023-05-07T07:16:46;15.00;99.90
31837;DHT22;18401;49.344;6.240;2023-05-07T07:19:12;15.00;99.90
31837;DHT22;18401;49.344;6.240;2023-05-07T07:21:37;15.20;99.90
31837;DHT22;18401;49.344;6.240;2023-05-07T07:24:03;15.40;99.90
31837;DHT22;18401;49.344;6.240;2023-05-07T07:26:28;15.60;99.90
31837;DHT22;18401;49.344;6.240;2023-05-07T07:28:54;15.60;99.90
31837;DHT22;18401;49.344;6.240;2023-05-07T07:31:19;15.60;99.90
31837;DHT22;18401;49.344;6.240;2023-05-07T07:33:45;15.90;99.90
31837;DHT22;18401;49.344;6.240;2023-05-07T07:36:10;15.90;99.90
31837;DHT22;18401;49.344;6.240;2023-05-07T07:38:36;15.90;99.90
31837;DHT22;18401;49.344;6.240;2023-05-07T07:41:02;15.90;99.90
31837;DHT22;18401;49.344;6.240;2023-05-07T07:43:27;16.20;99.90
31837;DHT22;18401;49.344;6.240;2023-05-07T07:45:53;16.20;99.90
31837;DHT22;18401;49.344;6.240;2023-05-07T07:48:18;16.30;99.90
31837;DHT22;18401;49.344;6.240;2023-05-07T07:50:44;16.50;99.90
31837;DHT22;18401;49.344;6.240;2023-05-07T07:53:10;16.70;99.90
31837;DHT22;18401;49.344;6.240;2023-05-07T07:55:39;16.70;99.90
31837;DHT22;18401;49.344;6.240;2023-05-07T07:58:04;16.90;99.90
31837;DHT22;18401;49.344;6.240;2023-05-07T08:00:30;17.00;99.90
31837;DHT22;18401;49.344;6.240;2023-05-07T08:02:56;16.90;99.90
31837;DHT22;18401;49.344;6.240;2023-05-07T08:05:22;16.90;99.90
31837;DHT22;18401;49.344;6.240;2023-05-07T08:07:48;16.90;99.90
31837;DHT22;18401;49.344;6.240;2023-05-07T08:10:17;16.80;99.90
31837;DHT22;18401;49.344;6.240;2023-05-07T08:12:47;16.70;99.90
31837;DHT22;18401;49.344;6.240;2023-05-07T08:15:12;16.50;99.90
31837;DHT22;18401;49.344;6.240;2023-05-07T08:17:38;16.70;99.90
31837;DHT22;18401;49.344;6.240;2023-05-07T08:20:04;16.70;99.90
31837;DHT22;18401;49.344;6.240;2023-05-07T08:22:30;16.80;99.90
31837;DHT22;18401;49.344;6.240;2023-05-07T08:24:55;17.00;99.90
31837;DHT22;18401;49.344;6.240;2023-05-07T08:27:21;17.10;99.90
31837;DHT22;18401;49.344;6.240;2023-05-07T08:29:46;17.20;99.90
31837;DHT22;18401;49.344;6.240;2023-05-07T08:32:13;17.00;99.90
31837;DHT22;18401;49.344;6.240;2023-05-07T08:34:38;17.20;99.90
31837;DHT22;18401;49.344;6.240;2023-05-07T08:37:04;17.50;99.90
31837;DHT22;18401;49.344;6.240;2023-05-07T08:39:29;17.80;99.90
31837;DHT22;18401;49.344;6.240;2023-05-07T08:41:55;18.20;99.90
31837;DHT22;18401;49.344;6.240;2023-05-07T08:44:23;18.50;99.90
31837;DHT22;18401;49.344;6.240;2023-05-07T08:46:51;18.40;99.90
31837;DHT22;18401;49.344;6.240;2023-05-07T08:49:19;18.40;99.90
31837;DHT22;18401;49.344;6.240;2023-05-07T08:51:45;18.30;99.90
31837;DHT22;18401;49.344;6.240;2023-05-07T08:54:11;18.40;99.90
31837;DHT22;18401;49.344;6.240;2023-05-07T08:56:36;18.70;99.90
31837;DHT22;18401;49.344;6.240;2023-05-07T08:59:02;18.80;99.90
31837;DHT22;18401;49.344;6.240;2023-05-07T09:01:28;18.80;99.90
31837;DHT22;18401;49.344;6.240;2023-05-07T09:03:54;18.90;99.90
31837;DHT22;18401;49.344;6.240;2023-05-07T09:06:20;18.90;99.90
31837;DHT22;18401;49.344;6.240;2023-05-07T09:08:49;19.10;99.90
31837;DHT22;18401;49.344;6.240;2023-05-07T09:11:15;19.40;99.90
31837;DHT22;18401;49.344;6.240;2023-05-07T09:13:41;19.30;99.90
31837;DHT22;18401;49.344;6.240;2023-05-07T09:16:10;19.40;99.90
31837;DHT22;18401;49.344;6.240;2023-05-07T09:18:43;19.40;99.90
31837;DHT22;18401;49.344;6.240;2023-05-07T09:21:10;19.60;99.90
31837;DHT22;18401;49.344;6.240;2023-05-07T09:23:36;19.50;99.90
31837;DHT22;18401;49.344;6.240;2023-05-07T09:26:01;19.70;99.90
31837;DHT22;18401;49.344;6.240;2023-05-07T09:28:27;20.20;99.90
31837;DHT22;18401;49.344;6.240;2023-05-07T09:30:53;20.40;99.90
31837;DHT22;18401;49.344;6.240;2023-05-07T09:33:18;20.50;99.90
31837;DHT22;18401;49.344;6.240;2023-05-07T09:35:44;20.60;99.90
31837;DHT22;18401;49.344;6.240;2023-05-07T09:38:09;20.70;99.90
31837;DHT22;18401;49.344;6.240;2023-05-07T09:40:35;20.70;99.90
31837;DHT22;18401;49.344;6.240;2023-05-07T09:43:10;20.40;99.90
31837;DHT22;18401;49.344;6.240;2023-05-07T09:45:36;20.60;99.90
31837;DHT22;18401;49.344;6.240;2023-05-07T09:48:02;20.60;99.90
31837;DHT22;18401;49.344;6.240;2023-05-07T09:50:32;20.60;99.90
31837;DHT22;18401;49.344;6.240;2023-05-07T09:52:58;20.60;99.90
31837;DHT22;18401;49.344;6.240;2023-05-07T09:55:24;20.70;99.90
31837;DHT22;18401;49.344;6.240;2023-05-07T09:57:50;20.80;99.90
31837;DHT22;18401;49.344;6.240;2023-05-07T10:00:16;20.90;99.90
31837;DHT22;18401;49.344;6.240;2023-05-07T10:02:45;20.90;99.90
31837;DHT22;18401;49.344;6.240;2023-05-07T10:05:16;20.80;99.90
31837;DHT22;18401;49.344;6.240;2023-05-07T10:07:42;20.60;99.90
31837;DHT22;18401;49.344;6.240;2023-05-07T10:10:07;20.70;99.90
31837;DHT22;18401;49.344;6.240;2023-05-07T10:12:33;20.80;99.90
31837;DHT22;18401;49.344;6.240;2023-05-07T10:15:09;20.80;99.90
31837;DHT22;18401;49.344;6.240;2023-05-07T10:17:39;20.80;99.90
31837;DHT22;18401;49.344;6.240;2023-05-07T10:20:05;20.70;99.90
31837;DHT22;18401;49.344;6.240;2023-05-07T10:22:41;20.60;99.90
31837;DHT22;18401;49.344;6.240;2023-05-07T10:27:46;20.70;99.90
31837;DHT22;18401;49.344;6.240;2023-05-07T10:32:51;20.90;99.90
31837;DHT22;18401;49.344;6.240;2023-05-07T10:35:21;20.80;99.90
31837;DHT22;18401;49.344;6.240;2023-05-07T10:37:48;21.00;99.90
31837;DHT22;18401;49.344;6.240;2023-05-07T10:40:13;20.90;99.90
31837;DHT22;18401;49.344;6.240;2023-05-07T10:42:52;21.00;99.90
31837;DHT22;18401;49.344;6.240;2023-05-07T10:45:18;21.00;99.90
31837;DHT22;18401;49.344;6.240;2023-05-07T10:50:28;21.20;99.90
31837;DHT22;18401;49.344;6.240;2023-05-07T10:53:20;21.60;99.90
31837;DHT22;18401;49.344;6.240;2023-05-07T10:55:50;21.80;99.90
31837;DHT22;18401;49.344;6.240;2023-05-07T11:00:50;22.00;99.90
31837;DHT22;18401;49.344;6.240;2023-05-07T11:03:16;22.20;99.90
31837;DHT22;18401;49.344;6.240;2023-05-07T11:05:42;22.30;99.90
31837;DHT22;18401;49.344;6.240;2023-05-07T11:08:07;21.80;99.10
31837;DHT22;18401;49.344;6.240;2023-05-07T11:10:52;21.90;92.80
31837;DHT22;18401;49.344;6.240;2023-05-07T11:13:18;21.90;89.40
31837;DHT22;18401;49.344;6.240;2023-05-07T11:15:45;21.50;93.60
31837;DHT22;18401;49.344;6.240;2023-05-07T11:18:12;21.40;95.40
31837;DHT22;18401;49.344;6.240;2023-05-07T11:20:48;21.30;97.80
31837;DHT22;18401;49.344;6.240;2023-05-07T11:26:00;20.60;99.90
31837;DHT22;18401;49.344;6.240;2023-05-07T11:28:27;20.50;99.90
31837;DHT22;18401;49.344;6.240;2023-05-07T11:30:53;20.60;99.90
31837;DHT22;18401;49.344;6.240;2023-05-07T11:33:19;20.50;99.90
31837;DHT22;18401;49.344;6.240;2023-05-07T11:35:44;20.70;99.90
31837;DHT22;18401;49.344;6.240;2023-05-07T11:38:10;20.50;99.90
31837;DHT22;18401;49.344;6.240;2023-05-07T11:40:48;20.50;99.90
31837;DHT22;18401;49.344;6.240;2023-05-07T11:43:13;20.40;99.90
31837;DHT22;18401;49.344;6.240;2023-05-07T11:45:39;20.20;99.90
31837;DHT22;18401;49.344;6.240;2023-05-07T11:48:04;20.00;99.90
31837;DHT22;18401;49.344;6.240;2023-05-07T11:50:32;20.00;99.90
31837;DHT22;18401;49.344;6.240;2023-05-07T11:52:57;19.90;99.90
31837;DHT22;18401;49.344;6.240;2023-05-07T11:55:23;19.80;99.90
31837;DHT22;18401;49.344;6.240;2023-05-07T11:57:50;19.70;99.90
31837;DHT22;18401;49.344;6.240;2023-05-07T12:00:15;19.70;99.90
31837;DHT22;18401;49.344;6.240;2023-05-07T12:02:41;19.70;99.90
31837;DHT22;18401;49.344;6.240;2023-05-07T12:05:07;19.70;99.90
31837;DHT22;18401;49.344;6.240;2023-05-07T12:07:34;19.60;99.90
31837;DHT22;18401;49.344;6.240;2023-05-07T12:10:03;19.50;99.90
31837;DHT22;18401;49.344;6.240;2023-05-07T12:12:29;19.50;99.90
31837;DHT22;18401;49.344;6.240;2023-05-07T12:14:54;19.40;99.90
31837;DHT22;18401;49.344;6.240;2023-05-07T12:17:20;19.50;99.90
31837;DHT22;18401;49.344;6.240;2023-05-07T12:19:46;19.40;99.90
31837;DHT22;18401;49.344;6.240;2023-05-07T12:22:12;19.10;99.90
31837;DHT22;18401;49.344;6.240;2023-05-07T12:24:44;19.10;99.90
31837;DHT22;18401;49.344;6.240;2023-05-07T12:27:10;19.40;99.90
31837;DHT22;18401;49.344;6.240;2023-05-07T12:29:36;19.70;99.90
31837;DHT22;18401;49.344;6.240;2023-05-07T12:32:05;20.00;99.90
31837;DHT22;18401;49.344;6.240;2023-05-07T12:34:31;20.20;99.90
31837;DHT22;18401;49.344;6.240;2023-05-07T12:36:56;20.30;99.90
31837;DHT22;18401;49.344;6.240;2023-05-07T12:39:22;20.30;99.90
31837;DHT22;18401;49.344;6.240;2023-05-07T12:41:54;20.20;99.90
31837;DHT22;18401;49.344;6.240;2023-05-07T12:44:23;20.10;99.90
31837;DHT22;18401;49.344;6.240;2023-05-07T12:46:49;20.10;99.90
31837;DHT22;18401;49.344;6.240;2023-05-07T12:49:15;20.00;99.90
31837;DHT22;18401;49.344;6.240;2023-05-07T12:51:40;19.70;99.90
31837;DHT22;18401;49.344;6.240;2023-05-07T12:54:06;19.70;99.90
31837;DHT22;18401;49.344;6.240;2023-05-07T12:56:31;19.60;99.90
31837;DHT22;18401;49.344;6.240;2023-05-07T12:58:57;19.60;99.90
31837;DHT22;18401;49.344;6.240;2023-05-07T13:01:28;19.60;99.90
31837;DHT22;18401;49.344;6.240;2023-05-07T13:03:53;19.60;99.90
31837;DHT22;18401;49.344;6.240;2023-05-07T13:06:19;19.40;99.90
31837;DHT22;18401;49.344;6.240;2023-05-07T13:08:45;19.20;99.90
31837;DHT22;18401;49.344;6.240;2023-05-07T13:11:11;19.10;99.90
31837;DHT22;18401;49.344;6.240;2023-05-07T13:13:37;19.10;99.90
31837;DHT22;18401;49.344;6.240;2023-05-07T13:16:04;18.90;99.90
31837;DHT22;18401;49.344;6.240;2023-05-07T13:18:30;18.80;99.90
31837;DHT22;18401;49.344;6.240;2023-05-07T13:20:56;18.70;99.90
31837;DHT22;18401;49.344;6.240;2023-05-07T13:23:21;18.70;99.90
31837;DHT22;18401;49.344;6.240;2023-05-07T13:25:47;18.70;99.90
31837;DHT22;18401;49.344;6.240;2023-05-07T13:28:13;18.80;99.90
31837;DHT22;18401;49.344;6.240;2023-05-07T13:30:38;18.90;99.90
31837;DHT22;18401;49.344;6.240;2023-05-07T13:33:04;18.90;99.90
31837;DHT22;18401;49.344;6.240;2023-05-07T13:35:29;18.90;99.90
31837;DHT22;18401;49.344;6.240;2023-05-07T13:37:55;18.90;99.90
31837;DHT22;18401;49.344;6.240;2023-05-07T13:40:21;18.90;99.90
31837;DHT22;18401;49.344;6.240;2023-05-07T13:42:47;18.70;99.90
31837;DHT22;18401;49.344;6.240;2023-05-07T13:45:13;18.90;99.90
31837;DHT22;18401;49.344;6.240;2023-05-07T13:47:42;19.10;99.90
31837;DHT22;18401;49.344;6.240;2023-05-07T13:50:08;19.00;99.90
31837;DHT22;18401;49.344;6.240;2023-05-07T13:52:34;19.00;99.90
31837;DHT22;18401;49.344;6.240;2023-05-07T13:54:59;19.20;99.90
31837;DHT22;18401;49.344;6.240;2023-05-07T13:57:25;19.20;99.90
31837;DHT22;18401;49.344;6.240;2023-05-07T13:59:50;19.20;99.90
31837;DHT22;18401;49.344;6.240;2023-05-07T14:02:16;19.30;99.90
31837;DHT22;18401;49.344;6.240;2023-05-07T14:04:41;19.30;99.90
31837;DHT22;18401;49.344;6.240;2023-05-07T14:07:07;19.40;99.90
31837;DHT22;18401;49.344;6.240;2023-05-07T14:09:33;19.50;99.90
31837;DHT22;18401;49.344;6.240;2023-05-07T14:11:58;19.60;99.90
31837;DHT22;18401;49.344;6.240;2023-05-07T14:14:24;19.70;99.90
31837;DHT22;18401;49.344;6.240;2023-05-07T14:16:49;19.70;99.90
31837;DHT22;18401;49.344;6.240;2023-05-07T14:19:15;19.70;99.90
31837;DHT22;18401;49.344;6.240;2023-05-07T14:21:41;19.70;99.90
31837;DHT22;18401;49.344;6.240;2023-05-07T14:24:06;19.80;99.90
31837;DHT22;18401;49.344;6.240;2023-05-07T14:26:32;20.00;99.90
31837;DHT22;18401;49.344;6.240;2023-05-07T14:28:58;20.20;99.90
31837;DHT22;18401;49.344;6.240;2023-05-07T14:31:23;20.40;99.90
31837;DHT22;18401;49.344;6.240;2023-05-07T14:33:49;20.80;99.90
31837;DHT22;18401;49.344;6.240;2023-05-07T14:36:17;21.60;99.90
31837;DHT22;18401;49.344;6.240;2023-05-07T14:38:45;21.40;99.90
31837;DHT22;18401;49.344;6.240;2023-05-07T14:41:11;21.40;99.90
31837;DHT22;18401;49.344;6.240;2023-05-07T14:43:36;21.50;99.90
31837;DHT22;18401;49.344;6.240;2023-05-07T14:46:02;21.50;99.90
31837;DHT22;18401;49.344;6.240;2023-05-07T14:48:29;21.30;99.90
31837;DHT22;18401;49.344;6.240;2023-05-07T14:50:54;21.30;99.90
31837;DHT22;18401;49.344;6.240;2023-05-07T14:53:21;21.20;99.90
31837;DHT22;18401;49.344;6.240;2023-05-07T14:55:47;21.50;99.90
31837;DHT22;18401;49.344;6.240;2023-05-07T14:58:12;21.00;99.90
31837;DHT22;18401;49.344;6.240;2023-05-07T15:00:38;20.90;99.90
31837;DHT22;18401;49.344;6.240;2023-05-07T15:03:05;21.00;99.90
31837;DHT22;18401;49.344;6.240;2023-05-07T15:05:30;20.90;99.90
31837;DHT22;18401;49.344;6.240;2023-05-07T15:07:56;20.80;99.90
31837;DHT22;18401;49.344;6.240;2023-05-07T15:10:21;20.80;99.90
31837;DHT22;18401;49.344;6.240;2023-05-07T15:12:47;20.80;99.90
31837;DHT22;18401;49.344;6.240;2023-05-07T15:15:12;20.60;99.90
31837;DHT22;18401;49.344;6.240;2023-05-07T15:17:38;20.50;99.90
31837;DHT22;18401;49.344;6.240;2023-05-07T15:20:04;20.40;99.90
31837;DHT22;18401;49.344;6.240;2023-05-07T15:22:30;20.50;99.90
31837;DHT22;18401;49.344;6.240;2023-05-07T15:24:55;20.70;99.90
31837;DHT22;18401;49.344;6.240;2023-05-07T15:27:22;20.60;99.90
31837;DHT22;18401;49.344;6.240;2023-05-07T15:29:47;20.60;99.90
31837;DHT22;18401;49.344;6.240;2023-05-07T15:32:13;20.50;99.90
31837;DHT22;18401;49.344;6.240;2023-05-07T15:34:38;20.90;99.90
31837;DHT22;18401;49.344;6.240;2023-05-07T15:37:04;21.30;99.90
31837;DHT22;18401;49.344;6.240;2023-05-07T15:39:30;21.00;99.90
31837;DHT22;18401;49.344;6.240;2023-05-07T15:41:56;21.40;99.90